Redland, North Carolina
Current Conditions -  °F | °C
As of 8:54 AM on Monday 26 Jan 2015 (Local Time) from KINT Reporting Station
Overcast Overcast  
Wind Chill: 39°   Ceiling: 7000
Heat Index: 39°   Visibility: 10mi
Dew Point: 33°   Wind: 3mph
Humidity: 79%   Direction: 30°NNE
Pressure: 29.66"   Gusts: NA
Location:  36.0107°N, 80.4503°W
Report Text: KINT 261354Z 03003KT 10SM OVC070 04/01 A2966 RMK AO2 SLP046 T00390006
Loading
Personal Weather Stations






























Interactive Weather Map New forecast layout! Learn more

10-Day Weather Forecast

Advertisements
Track Severe Weather on mobile